createdAt,value
2018-10-18T00:02:05.847Z,13.63
2018-10-18T00:04:34.879Z,14.53
2018-10-18T00:07:04.086Z,14.90
2018-10-18T00:09:32.935Z,14.43
2018-10-18T00:12:02.215Z,16.93
2018-10-18T00:14:31.424Z,14.40
2018-10-18T00:17:00.637Z,13.13
2018-10-18T00:19:29.841Z,15.23
2018-10-18T00:21:58.894Z,15.30
2018-10-18T00:24:27.995Z,14.23
2018-10-18T00:26:56.756Z,15.60
2018-10-18T00:29:25.796Z,16.87
2018-10-18T00:31:54.717Z,16.43
2018-10-18T00:34:23.584Z,14.37
2018-10-18T00:36:52.917Z,13.63
2018-10-18T00:39:21.994Z,15.80
2018-10-18T00:41:50.868Z,15.80
2018-10-18T00:44:20.135Z,14.70
2018-10-18T00:46:49.306Z,17.80
2018-10-18T00:49:18.569Z,17.83
2018-10-18T00:51:47.776Z,18.37
2018-10-18T00:54:16.793Z,17.20
2018-10-18T00:56:45.894Z,17.13
2018-10-18T00:59:14.966Z,17.53
2018-10-18T01:01:44.215Z,18.37
2018-10-18T01:04:13.287Z,18.17
2018-10-18T01:06:42.198Z,18.93
2018-10-18T01:09:12.245Z,14.57
2018-10-18T01:11:42.366Z,15.17
2018-10-18T01:14:12.270Z,18.13
2018-10-18T01:16:41.350Z,17.90
2018-10-18T01:19:10.792Z,17.63
2018-10-18T01:21:39.719Z,15.50
2018-10-18T01:24:09.428Z,17.37
2018-10-18T01:26:38.645Z,19.23
2018-10-18T01:29:07.696Z,16.03
2018-10-18T01:31:36.567Z,18.80
2018-10-18T01:34:05.957Z,15.63
2018-10-18T01:36:34.723Z,17.40
2018-10-18T01:39:04.513Z,19.33
2018-10-18T01:41:33.544Z,16.70
2018-10-18T01:44:02.479Z,18.20
2018-10-18T01:46:31.643Z,17.10
2018-10-18T01:49:00.886Z,20.90
2018-10-18T01:51:30.713Z,20.60
2018-10-18T01:54:00.052Z,19.53
2018-10-18T01:56:29.057Z,20.27
2018-10-18T01:58:58.099Z,20.83
2018-10-18T02:01:27.854Z,18.80
2018-10-18T02:03:56.741Z,18.53
2018-10-18T02:06:25.715Z,24.98
2018-10-18T02:08:54.790Z,20.03
2018-10-18T02:11:23.723Z,20.80
2018-10-18T02:13:52.666Z,20.80
2018-10-18T02:16:21.773Z,20.23
2018-10-18T02:18:50.923Z,22.10
2018-10-18T02:21:20.699Z,22.80
2018-10-18T02:23:49.794Z,21.40
2018-10-18T02:26:18.694Z,20.47
2018-10-18T02:28:47.804Z,19.40
2018-10-18T02:31:16.889Z,22.23
2018-10-18T02:33:45.943Z,18.33
2018-10-18T02:36:16.377Z,21.27
2018-10-18T02:38:45.449Z,20.60
2018-10-18T02:41:14.503Z,22.10
2018-10-18T02:43:43.654Z,21.30
2018-10-18T02:46:12.685Z,21.23
2018-10-18T02:48:41.770Z,21.60
2018-10-18T02:51:10.634Z,21.93
2018-10-18T02:53:39.749Z,22.27
2018-10-18T02:56:08.841Z,22.30
2018-10-18T02:58:38.142Z,19.87
2018-10-18T03:01:07.187Z,21.20
2018-10-18T03:03:35.893Z,22.10
2018-10-18T03:06:05.485Z,22.63
2018-10-18T03:08:34.537Z,22.87
2018-10-18T03:11:04.136Z,20.00
2018-10-18T03:13:33.076Z,22.87
2018-10-18T03:16:01.969Z,20.83
2018-10-18T03:18:30.960Z,21.03
2018-10-18T03:21:00.047Z,22.17
2018-10-18T03:23:28.976Z,22.30
2018-10-18T03:25:58.099Z,21.77
2018-10-18T03:28:27.059Z,22.53
2018-10-18T03:30:56.175Z,21.97
2018-10-18T03:33:25.253Z,20.37
2018-10-18T03:35:54.673Z,20.97
2018-10-18T03:38:23.796Z,22.20
2018-10-18T03:40:52.761Z,22.10
2018-10-18T03:43:22.176Z,24.63
2018-10-18T03:45:51.926Z,20.17
2018-10-18T03:48:21.054Z,23.20
2018-10-18T03:50:50.146Z,24.63
2018-10-18T03:53:19.266Z,21.70
2018-10-18T03:55:48.516Z,26.27
2018-10-18T03:58:17.495Z,21.67
2018-10-18T04:00:47.165Z,24.13
2018-10-18T04:03:16.377Z,21.43
2018-10-18T04:05:45.361Z,22.17
2018-10-18T04:08:14.445Z,19.73
2018-10-18T04:10:43.456Z,23.03
2018-10-18T04:13:13.518Z,24.17
2018-10-18T04:15:42.543Z,18.03
2018-10-18T04:18:11.502Z,21.07
2018-10-18T04:20:40.395Z,19.57
2018-10-18T04:23:09.514Z,24.73
2018-10-18T04:25:38.502Z,21.60
2018-10-18T04:28:08.074Z,19.50
2018-10-18T04:30:36.972Z,18.43
2018-10-18T04:33:06.206Z,21.52
2018-10-18T04:35:35.448Z,20.60
2018-10-18T04:38:04.701Z,20.70
2018-10-18T04:40:33.561Z,20.47
2018-10-18T04:43:02.527Z,19.87
2018-10-18T04:45:31.564Z,19.47
2018-10-18T04:48:00.906Z,23.00
2018-10-18T04:50:29.944Z,19.60
2018-10-18T04:52:59.050Z,19.57
2018-10-18T04:55:28.842Z,18.30
2018-10-18T04:57:57.885Z,21.97
2018-10-18T05:00:26.745Z,19.40
2018-10-18T05:02:55.770Z,20.77
2018-10-18T05:05:30.156Z,19.67
2018-10-18T05:07:59.343Z,20.20
2018-10-18T05:10:28.448Z,20.80
2018-10-18T05:12:57.599Z,21.70
2018-10-18T05:15:26.732Z,19.40
2018-10-18T05:17:55.699Z,18.70
2018-10-18T05:20:24.834Z,20.03
2018-10-18T05:22:54.366Z,17.37
2018-10-18T05:25:23.394Z,16.53
2018-10-18T05:27:52.304Z,16.87
2018-10-18T05:30:21.421Z,18.30
2018-10-18T05:32:50.572Z,16.70
2018-10-18T05:35:19.629Z,16.47
2018-10-18T05:37:48.744Z,16.30
2018-10-18T05:40:17.893Z,16.13
2018-10-18T05:42:47.677Z,17.47
2018-10-18T05:45:16.997Z,16.97
2018-10-18T05:47:46.097Z,15.83
2018-10-18T05:50:15.295Z,17.50
2018-10-18T05:52:44.375Z,17.03
2018-10-18T05:55:13.501Z,16.30
2018-10-18T05:57:42.816Z,17.37
2018-10-18T06:00:14.630Z,15.13
2018-10-18T06:02:43.758Z,16.67
2018-10-18T06:05:14.358Z,17.17
2018-10-18T06:07:44.291Z,16.67
2018-10-18T06:10:18.628Z,14.37
2018-10-18T06:12:47.377Z,18.07
2018-10-18T06:15:16.576Z,17.57
2018-10-18T06:17:45.776Z,16.97
2018-10-18T06:20:14.865Z,15.40
2018-10-18T06:22:44.012Z,16.93
2018-10-18T06:25:13.386Z,15.33
2018-10-18T06:27:42.244Z,16.77
2018-10-18T06:30:13.905Z,15.60
2018-10-18T06:32:42.899Z,14.00
2018-10-18T06:35:13.277Z,12.23
2018-10-18T06:37:42.225Z,15.10
2018-10-18T06:40:14.085Z,14.87
2018-10-18T06:42:43.737Z,13.80
2018-10-18T06:45:15.116Z,15.47
2018-10-18T06:47:45.186Z,13.50
2018-10-18T06:50:15.245Z,12.47
2018-10-18T06:52:44.075Z,15.40
2018-10-18T06:55:13.058Z,15.77
2018-10-18T06:57:42.957Z,13.43
2018-10-18T07:00:28.160Z,14.17
2018-10-18T07:02:57.117Z,14.53
2018-10-18T07:05:26.222Z,12.70
2018-10-18T07:07:55.222Z,13.00
2018-10-18T07:10:24.300Z,12.53
2018-10-18T07:12:53.222Z,12.60
2018-10-18T07:15:22.285Z,13.80
2018-10-18T07:17:51.384Z,15.93
2018-10-18T07:20:20.566Z,12.70
2018-10-18T07:22:50.078Z,12.63
2018-10-18T07:25:19.306Z,12.43
2018-10-18T07:27:55.204Z,16.23
2018-10-18T07:30:24.204Z,16.03
2018-10-18T07:32:53.044Z,14.50
2018-10-18T07:35:22.291Z,15.63
2018-10-18T07:37:51.305Z,15.77
2018-10-18T07:40:20.518Z,15.90
2018-10-18T07:42:49.814Z,15.30
2018-10-18T07:45:18.781Z,16.57
2018-10-18T07:47:47.743Z,18.53
2018-10-18T07:50:16.795Z,15.43
2018-10-18T07:52:45.542Z,15.90
2018-10-18T07:55:14.415Z,15.20
2018-10-18T07:57:43.418Z,15.57
2018-10-18T08:00:15.081Z,15.83
2018-10-18T08:02:44.706Z,15.93
2018-10-18T08:05:14.113Z,14.80
2018-10-18T08:07:43.084Z,13.17
2018-10-18T08:10:14.752Z,13.27
2018-10-18T08:12:43.712Z,13.77
2018-10-18T08:15:13.882Z,13.23
2018-10-18T08:17:44.584Z,13.77
2018-10-18T08:20:14.929Z,11.13
2018-10-18T08:22:44.494Z,11.53
2018-10-18T08:25:13.358Z,12.50
2018-10-18T08:27:42.418Z,11.13
2018-10-18T08:30:12.411Z,13.63
2018-10-18T08:32:41.566Z,12.10
2018-10-18T08:35:11.941Z,11.27
2018-10-18T08:37:41.330Z,11.13
2018-10-18T08:40:10.313Z,14.77
2018-10-18T08:42:39.627Z,13.70
2018-10-18T08:45:09.576Z,13.17
2018-10-18T08:47:38.535Z,12.73
2018-10-18T08:50:09.146Z,13.67
2018-10-18T08:52:38.375Z,13.10
2018-10-18T08:55:08.333Z,12.37
2018-10-18T08:57:37.798Z,12.83
2018-10-18T09:00:07.052Z,12.37
2018-10-18T09:02:35.983Z,11.33
2018-10-18T09:05:05.476Z,14.23
2018-10-18T09:07:34.706Z,11.53
2018-10-18T09:10:04.731Z,11.23
2018-10-18T09:12:33.775Z,12.27
2018-10-18T09:15:02.668Z,12.07
2018-10-18T09:17:31.764Z,11.30
2018-10-18T09:20:01.284Z,10.70
2018-10-18T09:22:30.323Z,11.87
2018-10-18T09:24:59.418Z,9.63
2018-10-18T09:27:28.464Z,13.33
2018-10-18T09:29:57.563Z,10.60
2018-10-18T09:32:26.655Z,9.97
2018-10-18T09:34:55.720Z,7.93
2018-10-18T09:37:24.937Z,7.43
2018-10-18T09:39:54.123Z,8.73
2018-10-18T09:42:23.562Z,7.40
2018-10-18T09:44:52.589Z,8.37
2018-10-18T09:47:21.446Z,7.50
2018-10-18T09:49:50.588Z,7.83
2018-10-18T09:52:19.916Z,7.00
2018-10-18T09:54:49.123Z,6.27
2018-10-18T09:57:18.159Z,6.33
2018-10-18T09:59:47.147Z,7.43
2018-10-18T10:02:21.449Z,8.00
2018-10-18T10:04:50.606Z,6.93
2018-10-18T10:07:20.108Z,5.43
2018-10-18T10:09:49.216Z,6.40
2018-10-18T10:12:18.548Z,6.63
2018-10-18T10:14:47.514Z,6.17
2018-10-18T10:17:16.573Z,4.30
2018-10-18T10:19:45.576Z,6.00
2018-10-18T10:22:14.757Z,5.33
2018-10-18T10:24:44.403Z,6.67
2018-10-18T10:27:13.426Z,8.03
2018-10-18T10:29:43.117Z,5.83
2018-10-18T10:32:12.696Z,4.40
2018-10-18T10:34:42.127Z,5.13
2018-10-18T10:37:11.693Z,3.90
2018-10-18T10:39:41.224Z,4.07
2018-10-18T10:42:10.714Z,7.73
2018-10-18T10:44:40.515Z,5.80
2018-10-18T10:47:09.614Z,5.00
2018-10-18T10:49:39.203Z,6.37
2018-10-18T10:52:08.672Z,5.03
2018-10-18T10:54:38.126Z,3.90
2018-10-18T10:57:07.591Z,4.20
2018-10-18T10:59:36.630Z,4.27
2018-10-18T11:02:06.097Z,4.80
2018-10-18T11:04:35.323Z,6.53
2018-10-18T11:07:04.365Z,6.47
2018-10-18T11:09:33.917Z,4.13
2018-10-18T11:12:03.574Z,4.13
2018-10-18T11:14:33.019Z,4.23
